Time;durP1;ratioP1;P1;durP2;ratioP2;P2;SDS_P1;SDS_P2;PMS_P1;PMS_P2;Temp;Humidity;BMP_temperature;BMP_pressure;BME280_temperature;BME280_humidity;BME280_pressure;Samples;Min_cycle;Max_cycle;Signal;HPM_P1;HPM_P2
2021/01/22 00:00:13;;;;;;;4.23;1.97;;;6.70;95.70;;;;;;4906298;29;20032;-84
2021/01/22 00:02:39;;;;;;;4.00;1.80;;;6.50;95.80;;;;;;4921841;29;20446;-86
2021/01/22 00:05:05;;;;;;;3.30;1.60;;;6.30;95.70;;;;;;4906178;29;20056;-85
2021/01/22 00:07:30;;;;;;;4.23;1.50;;;6.20;95.80;;;;;;4905998;29;20123;-85
2021/01/22 00:09:56;;;;;;;3.97;1.80;;;6.10;95.90;;;;;;4906200;29;20104;-85
2021/01/22 00:12:22;;;;;;;4.47;1.97;;;5.90;96.00;;;;;;4905944;29;20358;-87
2021/01/22 00:14:48;;;;;;;4.73;2.07;;;5.80;96.00;;;;;;4905700;29;20020;-85
2021/01/22 00:17:15;;;;;;;4.67;2.27;;;5.80;96.10;;;;;;4906143;29;20024;-86
2021/01/22 00:19:41;;;;;;;4.53;2.03;;;5.70;96.30;;;;;;4905787;29;20032;-86
2021/01/22 00:22:07;;;;;;;5.30;2.70;;;5.60;96.40;;;;;;4923477;29;20496;-82
2021/01/22 00:24:33;;;;;;;6.23;2.57;;;5.60;96.40;;;;;;4906189;29;20059;-84
2021/01/22 00:26:58;;;;;;;6.23;3.00;;;5.50;96.40;;;;;;4919841;29;20032;-85
2021/01/22 00:29:24;;;;;;;7.13;3.20;;;5.50;96.60;;;;;;4918828;29;20036;-84
2021/01/22 00:31:50;;;;;;;6.47;3.07;;;5.50;96.60;;;;;;4918408;29;20028;-88
2021/01/22 00:34:15;;;;;;;5.77;3.37;;;5.40;96.60;;;;;;4918406;29;20094;-84
2021/01/22 00:36:41;;;;;;;5.73;3.23;;;5.40;96.50;;;;;;4918672;29;20396;-85
2021/01/22 00:39:06;;;;;;;4.93;2.50;;;5.40;96.40;;;;;;4900809;29;20056;-78
2021/01/22 00:41:33;;;;;;;4.57;2.07;;;5.20;96.10;;;;;;4934063;29;20032;-78
2021/01/22 00:43:58;;;;;;;3.53;1.60;;;5.10;96.40;;;;;;4917778;29;20028;-79
2021/01/22 00:46:24;;;;;;;6.63;1.93;;;5.00;96.10;;;;;;4934375;29;20090;-81
2021/01/22 00:48:50;;;;;;;3.60;1.70;;;4.90;96.00;;;;;;4921339;29;20114;-78
2021/01/22 00:51:15;;;;;;;4.50;1.90;;;4.80;96.00;;;;;;4938205;29;20028;-77
2021/01/22 00:53:41;;;;;;;4.67;1.77;;;4.70;96.10;;;;;;4921195;29;20036;-76
2021/01/22 00:56:07;;;;;;;5.80;2.50;;;4.70;96.30;;;;;;4921188;29;20582;-80
2021/01/22 00:58:32;;;;;;;6.43;2.90;;;4.60;96.30;;;;;;4905485;29;20031;-78
2021/01/22 01:00:58;;;;;;;8.73;3.63;;;4.60;96.40;;;;;;4921255;29;20028;-80
2021/01/22 01:03:24;;;;;;;6.83;3.47;;;4.50;96.50;;;;;;4921309;29;20050;-79
2021/01/22 01:05:49;;;;;;;8.17;3.43;;;4.40;96.60;;;;;;4937941;29;20032;-79
2021/01/22 01:08:15;;;;;;;7.60;2.97;;;4.40;96.70;;;;;;4920852;29;20451;-77
2021/01/22 01:10:41;;;;;;;7.20;3.80;;;4.40;96.80;;;;;;4920802;29;20030;-77
2021/01/22 01:13:06;;;;;;;5.77;2.93;;;4.40;96.90;;;;;;4889559;29;20024;-77
2021/01/22 01:15:32;;;;;;;8.57;2.77;;;4.40;97.00;;;;;;4920578;29;20075;-77
2021/01/22 01:17:58;;;;;;;5.53;2.80;;;4.30;97.10;;;;;;4920957;29;20080;-77
2021/01/22 01:20:24;;;;;;;8.43;2.87;;;4.30;97.20;;;;;;4920547;29;20028;-77
2021/01/22 01:22:50;;;;;;;8.10;3.27;;;4.30;97.20;;;;;;4889229;29;20039;-76
2021/01/22 01:25:16;;;;;;;6.47;3.00;;;4.30;97.30;;;;;;4920945;29;20032;-76
2021/01/22 01:27:41;;;;;;;6.80;3.07;;;4.30;97.40;;;;;;4920848;29;20519;-78
2021/01/22 01:30:08;;;;;;;6.40;3.03;;;4.30;97.40;;;;;;4920530;29;20032;-76
2021/01/22 01:32:33;;;;;;;6.20;2.43;;;4.30;97.40;;;;;;4920102;29;20023;-76
2021/01/22 01:34:59;;;;;;;7.37;2.77;;;4.30;97.50;;;;;;4889192;29;20480;-76
2021/01/22 01:37:25;;;;;;;9.23;3.77;;;4.40;97.50;;;;;;4888603;29;20087;-77
2021/01/22 01:39:50;;;;;;;9.43;3.90;;;4.40;97.60;;;;;;4920411;29;20040;-76
2021/01/22 01:42:16;;;;;;;11.50;4.93;;;4.40;97.60;;;;;;4920238;29;20028;-76
2021/01/22 01:44:42;;;;;;;7.73;3.80;;;4.30;97.60;;;;;;4919995;29;20444;-76
2021/01/22 01:47:07;;;;;;;7.33;3.83;;;4.30;97.90;;;;;;4904614;29;20047;-76
2021/01/22 01:49:33;;;;;;;9.63;4.37;;;4.30;97.70;;;;;;4919994;29;20032;-76
2021/01/22 01:51:59;;;;;;;9.77;4.43;;;4.30;97.70;;;;;;4937253;29;20083;-76
2021/01/22 01:54:25;;;;;;;11.27;5.70;;;4.40;97.80;;;;;;4920155;29;20031;-76
2021/01/22 01:56:52;;;;;;;12.27;5.97;;;4.40;97.80;;;;;;4920026;29;20057;-76
2021/01/22 01:59:18;;;;;;;15.53;6.70;;;4.40;97.80;;;;;;4920044;29;20067;-76
2021/01/22 02:01:44;;;;;;;12.80;6.73;;;4.40;98.20;;;;;;4919891;29;20106;-80
2021/01/22 02:04:10;;;;;;;15.40;7.27;;;4.40;98.10;;;;;;4904350;29;20038;-77
2021/01/22 02:06:36;;;;;;;13.50;7.07;;;4.40;97.90;;;;;;4904213;29;20032;-76
2021/01/22 02:09:03;;;;;;;12.63;6.20;;;4.30;97.90;;;;;;4919920;29;20039;-77
2021/01/22 02:11:30;;;;;;;14.20;6.80;;;4.30;97.90;;;;;;4904157;29;20628;-77
2021/01/22 02:13:57;;;;;;;14.90;7.27;;;4.30;97.90;;;;;;4919944;29;20522;-78
2021/01/22 02:16:24;;;;;;;18.40;9.30;;;4.30;97.90;;;;;;4904135;29;20119;-76
2021/01/22 02:18:53;;;;;;;19.23;9.17;;;4.30;97.90;;;;;;4904295;29;20035;-76
2021/01/22 02:21:35;;;;;;;16.40;8.87;;;4.30;98.20;;;;;;4919640;29;20468;-82
2021/01/22 02:24:28;;;;;;;18.87;8.23;;;4.30;98.30;;;;;;4904278;29;20074;-81
2021/01/22 02:27:04;;;;;;;20.23;8.73;;;4.30;98.00;;;;;;4933729;29;20055;-85
2021/01/22 02:29:32;;;;;;;20.77;10.13;;;4.30;98.00;;;;;;4919474;29;20086;-83
2021/01/22 02:32:03;;;;;;;23.50;10.60;;;4.30;98.00;;;;;;4919458;29;20110;-82
2021/01/22 02:34:34;;;;;;;23.17;11.73;;;4.30;98.10;;;;;;4919353;29;20079;-82
2021/01/22 02:37:01;;;;;;;27.87;12.23;;;4.30;98.00;;;;;;4904867;29;20441;-81
2021/01/22 02:39:32;;;;;;;26.37;11.10;;;4.30;98.00;;;;;;4903951;29;20028;-80
2021/01/22 02:41:58;;;;;;;24.53;12.23;;;4.30;98.10;;;;;;4936339;29;20035;-80
2021/01/22 02:44:25;;;;;;;27.00;13.20;;;4.20;98.00;;;;;;4903835;29;20118;-80
2021/01/22 02:46:50;;;;;;;20.60;11.50;;;4.20;98.00;;;;;;4936012;29;20048;-80
2021/01/22 02:49:16;;;;;;;24.50;10.67;;;4.30;98.10;;;;;;4902919;29;20043;-81
2021/01/22 02:51:42;;;;;;;24.77;11.40;;;4.30;98.10;;;;;;4919386;29;20036;-80
2021/01/22 02:54:07;;;;;;;24.10;11.20;;;4.30;98.00;;;;;;4936162;29;20032;-80
2021/01/22 02:56:52;;;;;;;29.20;12.80;;;4.20;98.00;;;;;;4919073;29;20432;-80
2021/01/22 02:59:32;;;;;;;;;;;4.30;98.00;;;;;;4919839;29;20399;-80
2021/01/22 03:02:27;;;;;;;27.17;12.37;;;4.20;98.00;;;;;;4936219;29;19961;-80
2021/01/22 03:04:54;;;;;;;23.88;11.15;;;4.20;97.90;;;;;;4919155;29;20441;-81
2021/01/22 03:07:33;;;;;;;29.60;13.37;;;4.10;97.90;;;;;;4918714;29;20024;-80
2021/01/22 03:09:59;;;;;;;28.03;14.47;;;4.10;97.90;;;;;;4934171;29;20110;-80
2021/01/22 03:12:27;;;;;;;34.60;15.50;;;4.10;97.90;;;;;;4918973;29;20114;-80
2021/01/22 03:14:55;;;;;;;28.77;14.90;;;4.10;97.90;;;;;;4918881;29;20026;-79
2021/01/22 03:17:20;;;;;;;28.03;15.63;;;4.10;97.90;;;;;;4903420;29;20031;-80
2021/01/22 03:19:48;;;;;;;30.27;14.70;;;4.10;97.90;;;;;;4903211;29;20461;-80
2021/01/22 03:22:14;;;;;;;34.07;17.43;;;4.10;97.90;;;;;;4903144;29;20032;-80
2021/01/22 03:24:40;;;;;;;29.90;15.60;;;4.10;97.90;;;;;;4918836;29;20119;-80
2021/01/22 03:27:06;;;;;;;31.00;16.40;;;4.00;97.90;;;;;;4903299;29;20035;-80
2021/01/22 03:29:32;;;;;;;25.07;14.27;;;4.00;97.90;;;;;;4935896;29;20024;-80
2021/01/22 03:32:02;;;;;;;26.93;14.57;;;4.00;97.90;;;;;;4918840;29;20473;-75
2021/01/22 03:34:27;;;;;;;28.37;14.23;;;4.00;97.90;;;;;;4918711;29;20031;-75
2021/01/22 03:36:57;;;;;;;22.37;11.80;;;4.10;97.90;;;;;;4887647;29;20035;-75
2021/01/22 03:39:24;;;;;;;21.80;11.70;;;4.10;98.00;;;;;;4935976;29;20055;-75
2021/01/22 03:41:50;;;;;;;23.03;12.17;;;4.10;98.00;;;;;;4918526;29;20057;-75
2021/01/22 03:44:16;;;;;;;22.07;11.33;;;4.10;98.00;;;;;;4918667;29;20476;-75
2021/01/22 03:46:43;;;;;;;22.93;11.43;;;4.20;98.00;;;;;;4902721;29;20744;-75
2021/01/22 03:49:09;;;;;;;20.77;10.17;;;4.10;98.00;;;;;;4902915;29;20043;-75
2021/01/22 03:51:35;;;;;;;16.17;9.03;;;4.10;98.00;;;;;;4903005;29;20503;-75
2021/01/22 03:54:00;;;;;;;15.03;8.40;;;4.10;97.90;;;;;;4935611;29;20027;-75
2021/01/22 03:56:26;;;;;;;18.03;8.10;;;4.10;97.90;;;;;;4902945;29;20036;-75
2021/01/22 03:58:51;;;;;;;13.97;6.33;;;4.10;97.80;;;;;;4918643;29;20522;-75
2021/01/22 04:01:21;;;;;;;15.53;6.93;;;4.10;97.80;;;;;;4936973;29;20123;-75
2021/01/22 04:03:48;;;;;;;13.43;5.63;;;4.00;97.70;;;;;;4906611;29;20043;-75
2021/01/22 04:06:13;;;;;;;13.43;5.30;;;4.00;97.70;;;;;;4906529;29;20039;-75
2021/01/22 04:08:39;;;;;;;11.73;4.97;;;4.10;97.70;;;;;;4921951;29;20379;-75
2021/01/22 04:11:05;;;;;;;11.73;5.80;;;4.00;97.70;;;;;;4906364;29;20028;-75
2021/01/22 04:13:32;;;;;;;10.77;5.10;;;4.00;97.70;;;;;;4906433;29;20415;-75
2021/01/22 04:15:57;;;;;;;10.53;4.40;;;4.00;97.70;;;;;;4906440;29;20364;-75
2021/01/22 04:18:23;;;;;;;9.73;4.73;;;4.00;97.70;;;;;;4922342;29;20036;-75
2021/01/22 04:20:49;;;;;;;12.47;4.57;;;4.00;97.80;;;;;;4921711;29;20076;-75
2021/01/22 04:23:14;;;;;;;12.17;4.73;;;4.00;97.80;;;;;;4922284;29;20024;-75
2021/01/22 04:25:40;;;;;;;9.03;4.17;;;4.00;97.80;;;;;;4938808;29;20036;-75
2021/01/22 04:28:05;;;;;;;9.30;4.50;;;4.00;97.80;;;;;;4906358;29;20046;-75
2021/01/22 04:30:31;;;;;;;11.17;4.80;;;4.00;97.80;;;;;;4921562;29;20380;-75
2021/01/22 04:32:57;;;;;;;11.63;4.67;;;4.00;97.80;;;;;;4905734;29;20079;-75
2021/01/22 04:35:22;;;;;;;11.87;4.73;;;4.10;97.80;;;;;;4921488;29;20042;-75
2021/01/22 04:37:48;;;;;;;12.47;4.93;;;4.10;97.90;;;;;;4890141;29;20028;-75
2021/01/22 04:40:15;;;;;;;12.77;5.73;;;4.10;97.90;;;;;;4905698;29;20038;-75
2021/01/22 04:42:43;;;;;;;16.43;6.53;;;4.10;97.80;;;;;;4938476;29;20067;-75
2021/01/22 04:45:10;;;;;;;13.87;6.53;;;4.10;97.80;;;;;;4921281;29;20048;-75
2021/01/22 04:47:37;;;;;;;12.60;6.07;;;4.10;97.80;;;;;;4935788;29;20045;-75
2021/01/22 04:50:04;;;;;;;11.03;5.50;;;4.10;97.80;;;;;;4957745;29;20047;-76
2021/01/22 04:52:32;;;;;;;13.27;6.73;;;4.20;97.90;;;;;;4957335;29;20028;-75
2021/01/22 04:55:00;;;;;;;13.00;6.00;;;4.10;97.80;;;;;;4940388;29;20396;-75
2021/01/22 04:57:29;;;;;;;12.20;6.90;;;4.20;97.90;;;;;;4924728;29;20047;-75
2021/01/22 04:59:56;;;;;;;14.60;7.53;;;4.20;97.90;;;;;;4957258;29;20027;-76
2021/01/22 05:02:22;;;;;;;15.20;8.63;;;4.20;97.80;;;;;;4939525;29;20045;-75
2021/01/22 05:04:49;;;;;;;15.97;8.07;;;4.20;97.80;;;;;;4921132;29;20539;-76
2021/01/22 05:07:15;;;;;;;18.70;9.27;;;4.20;97.80;;;;;;4921001;29;20031;-76
2021/01/22 05:09:41;;;;;;;22.10;11.97;;;4.20;97.80;;;;;;4938200;29;20369;-75
2021/01/22 05:12:07;;;;;;;21.33;12.43;;;4.20;97.80;;;;;;4920446;29;20078;-76
2021/01/22 05:14:34;;;;;;;27.73;13.97;;;4.20;97.70;;;;;;4937347;29;20027;-75
2021/01/22 05:17:01;;;;;;;26.93;16.07;;;4.20;97.80;;;;;;4905081;29;20032;-75
2021/01/22 05:19:27;;;;;;;27.87;16.60;;;4.20;97.80;;;;;;4937998;29;20369;-76
2021/01/22 05:21:53;;;;;;;33.97;19.10;;;4.20;97.80;;;;;;4920694;29;20123;-75
2021/01/22 05:24:26;;;;;;;40.27;21.63;;;4.20;98.00;;;;;;4937743;29;20046;-76
2021/01/22 05:27:04;;;;;;;32.10;20.02;;;4.20;97.80;;;;;;4937653;29;20127;-76
2021/01/22 05:29:31;;;;;;;36.93;21.63;;;4.20;97.90;;;;;;4920510;29;20020;-75
2021/01/22 05:31:57;;;;;;;36.23;20.90;;;4.20;98.00;;;;;;4919789;29;20068;-75
2021/01/22 05:34:24;;;;;;;40.27;23.37;;;4.30;97.80;;;;;;4919407;29;20007;-76
2021/01/22 05:36:50;;;;;;;43.27;22.80;;;4.20;97.80;;;;;;4920219;29;20024;-76
2021/01/22 05:39:22;;;;;;;39.93;21.63;;;4.20;97.70;;;;;;4937221;29;20031;-75
2021/01/22 05:41:53;;;;;;;41.57;23.77;;;4.20;97.80;;;;;;4920400;29;20032;-75
2021/01/22 05:44:23;;;;;;;38.70;22.07;;;4.20;97.80;;;;;;4938765;29;20027;-75
2021/01/22 05:47:07;;;;;;;38.90;22.63;;;4.20;97.80;;;;;;4936971;29;20079;-76
2021/01/22 05:49:33;;;;;;;42.58;24.55;;;4.20;97.70;;;;;;4920201;29;20483;-76
2021/01/22 05:51:59;;;;;;;37.37;22.83;;;4.20;97.70;;;;;;4937139;29;20051;-75
2021/01/22 05:54:36;;;;;;;37.70;22.77;;;4.20;97.70;;;;;;4917516;29;20027;-76
2021/01/22 05:57:02;;;;;;;39.80;24.17;;;4.20;97.70;;;;;;4937212;29;20042;-76
2021/01/22 05:59:28;;;;;;;42.60;25.00;;;4.20;97.70;;;;;;4926887;29;20036;-75
2021/01/22 06:01:54;;;;;;;49.00;26.67;;;4.20;97.70;;;;;;4920257;29;20149;-76
2021/01/22 06:04:19;;;;;;;46.30;27.10;;;4.10;97.70;;;;;;4920108;29;20083;-76
2021/01/22 06:06:45;;;;;;;47.90;26.33;;;4.10;97.70;;;;;;4904286;29;20035;-76
2021/01/22 06:09:11;;;;;;;44.57;25.17;;;4.20;97.70;;;;;;4903821;29;20055;-76
2021/01/22 06:11:36;;;;;;;47.80;27.57;;;4.10;97.70;;;;;;4903898;29;20035;-76
2021/01/22 06:14:07;;;;;;;46.50;27.40;;;4.10;97.70;;;;;;4920437;29;20036;-76
2021/01/22 06:16:35;;;;;;;51.10;27.97;;;4.20;97.70;;;;;;4925442;29;20027;-76
2021/01/22 06:19:06;;;;;;;51.17;29.53;;;4.10;97.70;;;;;;4919326;29;20067;-76
2021/01/22 06:21:39;;;;;;;46.23;27.50;;;4.20;97.80;;;;;;4936266;29;20107;-76
2021/01/22 06:24:06;;;;;;;54.63;30.07;;;4.20;97.80;;;;;;4903752;29;20506;-76
2021/01/22 06:26:39;;;;;;;47.07;28.70;;;4.10;97.70;;;;;;4936441;29;20050;-76
2021/01/22 06:29:06;;;;;;;50.57;27.67;;;4.20;97.70;;;;;;4936396;29;20337;-76
2021/01/22 06:31:33;;;;;;;50.63;28.47;;;4.10;97.70;;;;;;4935121;29;20037;-75
2021/01/22 06:34:00;;;;;;;52.07;28.60;;;4.20;97.70;;;;;;4910591;29;20043;-75
2021/01/22 06:36:26;;;;;;;48.37;27.53;;;4.10;97.60;;;;;;4915696;29;20028;-76
2021/01/22 06:38:54;;;;;;;48.93;27.27;;;4.10;97.90;;;;;;4938243;29;20063;-75
2021/01/22 06:41:27;;;;;;;48.43;27.10;;;4.00;97.60;;;;;;4916163;29;20492;-75
2021/01/22 06:43:57;;;;;;;45.38;25.65;;;4.00;97.50;;;;;;4936383;29;20058;-75
2021/01/22 06:46:30;;;;;;;50.47;26.57;;;4.00;97.50;;;;;;4946058;29;20043;-76
2021/01/22 06:48:56;;;;;;;50.20;27.50;;;3.90;97.50;;;;;;4938195;29;20024;-75
2021/01/22 06:51:24;;;;;;;40.60;23.73;;;3.90;97.50;;;;;;4938412;29;20027;-75
2021/01/22 06:54:09;;;;;;;44.40;25.07;;;3.90;97.50;;;;;;4921380;29;20159;-75
2021/01/22 06:56:38;;;;;;;48.97;25.33;;;3.90;97.40;;;;;;4927578;29;20106;-75
2021/01/22 06:59:18;;;;;;;51.07;27.07;;;3.80;97.40;;;;;;4927783;28;20085;-75
2021/01/22 07:01:45;;;;;;;42.93;23.27;;;3.80;97.40;;;;;;4942992;28;20027;-75
2021/01/22 07:04:30;;;;;;;42.10;23.47;;;3.80;97.40;;;;;;4937590;29;20019;-75
2021/01/22 07:07:03;;;;;;;47.10;24.70;;;3.80;97.40;;;;;;4934003;29;20035;-75
2021/01/22 07:09:41;;;;;;;40.97;22.88;;;3.80;97.40;;;;;;4922941;29;20113;-75
2021/01/22 07:12:08;;;;;;;41.20;23.20;;;3.70;97.40;;;;;;4955114;29;20020;-75
2021/01/22 07:14:44;;;;;;;46.33;24.87;;;3.70;97.40;;;;;;4937962;29;20035;-75
2021/01/22 07:17:20;;;;;;;39.93;23.27;;;3.70;97.40;;;;;;4929356;29;20484;-75
2021/01/22 07:20:05;;;;;;;46.27;24.93;;;3.70;97.50;;;;;;4928007;29;20114;-75
2021/01/22 07:22:32;;;;;;;43.58;24.17;;;3.70;97.50;;;;;;4936826;29;20058;-75
2021/01/22 07:25:03;;;;;;;46.70;24.77;;;3.60;97.50;;;;;;4921877;29;20558;-75
2021/01/22 07:27:40;;;;;;;43.53;23.40;;;3.60;97.50;;;;;;4919420;29;20106;-75
2021/01/22 07:30:16;;;;;;;38.90;22.03;;;3.60;97.60;;;;;;4902870;29;20027;-75
2021/01/22 07:32:43;;;;;;;44.00;24.00;;;3.60;97.60;;;;;;4935689;29;20058;-74
2021/01/22 07:35:24;;;;;;;48.70;25.37;;;3.60;97.60;;;;;;4924452;28;20028;-75
2021/01/22 07:37:50;;;;;;;51.20;24.27;;;3.60;97.60;;;;;;4941422;29;20035;-75
2021/01/22 07:40:17;;;;;;;40.47;22.17;;;3.60;97.70;;;;;;4962191;28;20031;-74
2021/01/22 07:42:43;;;;;;;44.57;23.00;;;3.60;97.70;;;;;;4964765;28;20032;-74
2021/01/22 07:45:15;;;;;;;43.47;22.37;;;3.60;97.70;;;;;;4939409;29;20051;-74
2021/01/22 07:47:42;;;;;;;41.47;23.10;;;3.60;97.80;;;;;;4941244;29;20558;-76
2021/01/22 07:50:12;;;;;;;43.57;24.57;;;3.60;97.80;;;;;;4941019;29;20043;-75
2021/01/22 07:52:48;;;;;;;42.33;23.17;;;3.60;97.80;;;;;;4966352;28;20055;-76
2021/01/22 07:55:19;;;;;;;48.77;24.67;;;3.70;97.80;;;;;;4944548;28;20483;-75
2021/01/22 07:57:46;;;;;;;44.63;22.93;;;3.70;97.90;;;;;;4953767;29;20084;-74
2021/01/22 08:00:14;;;;;;;49.83;26.80;;;3.70;97.90;;;;;;4909538;29;20368;-75
2021/01/22 08:02:57;;;;;;;43.40;22.73;;;3.70;97.90;;;;;;4941139;29;20543;-74
2021/01/22 08:05:36;;;;;;;41.23;22.60;;;3.70;97.90;;;;;;4941119;29;20110;-74
2021/01/22 08:08:19;;;;;;;42.33;22.80;;;3.80;98.00;;;;;;4922020;29;20044;-74
2021/01/22 08:10:46;;;;;;;45.87;23.30;;;3.90;98.00;;;;;;4921633;29;20028;-75
2021/01/22 08:13:11;;;;;;;37.07;21.13;;;3.80;98.00;;;;;;4906106;29;20028;-76
2021/01/22 08:15:37;;;;;;;45.37;22.60;;;3.90;98.00;;;;;;4906104;29;20038;-75
2021/01/22 08:18:06;;;;;;;39.23;21.80;;;3.90;98.00;;;;;;4905997;29;20543;-75
2021/01/22 08:20:36;;;;;;;42.50;22.73;;;3.90;98.00;;;;;;4921446;29;20376;-75
2021/01/22 08:23:02;;;;;;;41.80;22.63;;;3.90;98.00;;;;;;4906284;29;20035;-75
2021/01/22 08:25:35;;;;;;;32.47;19.83;;;3.90;98.00;;;;;;4905899;29;20130;-75
2021/01/22 08:28:01;;;;;;;36.40;19.97;;;3.90;98.00;;;;;;4938520;29;20032;-74
2021/01/22 08:30:27;;;;;;;38.10;19.83;;;4.00;98.00;;;;;;4921270;29;20039;-75
2021/01/22 08:32:54;;;;;;;45.00;21.40;;;4.00;98.00;;;;;;4921387;29;20062;-74
2021/01/22 08:35:22;;;;;;;39.00;20.20;;;4.00;98.00;;;;;;4938534;29;20365;-75
2021/01/22 08:37:49;;;;;;;40.10;22.43;;;4.00;98.00;;;;;;4938481;29;20035;-75
2021/01/22 08:40:15;;;;;;;35.10;18.93;;;4.20;98.00;;;;;;4905571;29;20040;-75
2021/01/22 08:43:02;;;;;;;43.80;21.43;;;4.10;98.00;;;;;;4938483;29;20032;-75
2021/01/22 08:45:28;;;;;;;40.43;21.00;;;4.10;97.90;;;;;;4921423;29;20484;-75
2021/01/22 08:47:54;;;;;;;37.43;19.17;;;4.10;97.90;;;;;;4928650;29;20031;-76
2021/01/22 08:50:20;;;;;;;33.20;18.07;;;4.10;97.90;;;;;;4905319;29;20039;-76
2021/01/22 08:52:46;;;;;;;36.30;18.43;;;4.10;97.90;;;;;;4889857;29;20035;-75
2021/01/22 08:55:22;;;;;;;36.00;19.17;;;4.30;98.00;;;;;;4921076;29;20513;-75
2021/01/22 08:58:01;;;;;;;35.57;20.17;;;4.20;97.90;;;;;;4937894;29;20472;-75
2021/01/22 09:00:27;;;;;;;33.07;18.67;;;4.30;97.90;;;;;;4890596;29;20444;-75
2021/01/22 09:02:53;;;;;;;33.37;18.50;;;4.30;97.80;;;;;;4905120;29;20497;-75
2021/01/22 09:05:19;;;;;;;30.80;17.50;;;4.30;97.80;;;;;;4920966;29;20112;-76
2021/01/22 09:07:45;;;;;;;34.03;18.07;;;4.30;97.80;;;;;;4920564;29;20541;-75
2021/01/22 09:10:30;;;;;;;29.97;18.37;;;4.30;97.70;;;;;;4904883;29;20047;-76
2021/01/22 09:13:15;;;;;;;32.50;18.37;;;4.40;97.70;;;;;;4940916;28;20030;-76
2021/01/22 09:15:41;;;;;;;33.47;17.33;;;4.40;97.70;;;;;;4927824;29;20031;-76
2021/01/22 09:18:21;;;;;;;32.40;17.33;;;4.40;97.60;;;;;;4951101;28;20050;-76
2021/01/22 09:20:58;;;;;;;32.23;17.80;;;4.40;97.60;;;;;;4931268;29;20032;-75
2021/01/22 09:23:25;;;;;;;32.17;18.20;;;4.40;97.60;;;;;;4905919;29;20031;-75
2021/01/22 09:25:50;;;;;;;30.73;17.13;;;4.50;97.70;;;;;;4920357;29;20051;-75
2021/01/22 09:28:16;;;;;;;28.73;16.80;;;4.50;97.60;;;;;;4904448;29;20468;-75
2021/01/22 09:30:42;;;;;;;37.63;17.77;;;4.50;97.60;;;;;;4929575;29;20045;-75
2021/01/22 09:33:08;;;;;;;31.67;17.07;;;4.60;97.60;;;;;;4939471;29;20526;-76
2021/01/22 09:35:33;;;;;;;25.47;16.00;;;4.60;97.80;;;;;;4939767;29;20110;-75
2021/01/22 09:37:59;;;;;;;30.80;15.43;;;4.60;97.50;;;;;;4939252;29;20127;-75
2021/01/22 09:40:26;;;;;;;28.30;15.43;;;4.70;97.50;;;;;;4956713;29;20035;-76
2021/01/22 09:42:52;;;;;;;31.80;16.47;;;4.70;97.50;;;;;;4956989;29;20039;-76
2021/01/22 09:45:19;;;;;;;28.57;16.03;;;4.70;97.40;;;;;;4955635;28;20403;-76
2021/01/22 09:47:45;;;;;;;24.03;14.73;;;4.80;97.40;;;;;;4949944;28;20130;-76
2021/01/22 09:50:14;;;;;;;29.90;15.80;;;4.80;97.50;;;;;;4922325;29;20067;-76
2021/01/22 09:52:39;;;;;;;30.27;15.67;;;4.80;97.40;;;;;;4928519;29;20026;-77
2021/01/22 09:55:08;;;;;;;27.33;14.60;;;4.90;97.40;;;;;;4920523;29;20368;-75
2021/01/22 09:57:33;;;;;;;25.07;14.53;;;5.00;97.60;;;;;;4937278;29;20032;-76
2021/01/22 09:59:59;;;;;;;23.30;13.10;;;5.30;98.00;;;;;;4919913;29;20124;-76
2021/01/22 10:02:24;;;;;;;20.50;10.43;;;5.50;98.30;;;;;;4942361;29;20479;-76
2021/01/22 10:04:50;;;;;;;17.57;10.93;;;5.80;98.30;;;;;;4948133;29;20046;-77
2021/01/22 10:07:16;;;;;;;18.97;10.60;;;6.00;97.80;;;;;;4938779;29;20114;-75
2021/01/22 10:09:41;;;;;;;15.93;7.87;;;6.20;98.00;;;;;;4923247;29;20491;-76
2021/01/22 10:12:08;;;;;;;16.43;7.63;;;6.70;98.30;;;;;;4956684;29;20028;-77
2021/01/22 10:14:34;;;;;;;13.57;6.80;;;7.10;98.20;;;;;;4934058;29;20019;-77
2021/01/22 10:17:00;;;;;;;12.63;5.20;;;7.40;97.60;;;;;;4937061;29;20042;-77
2021/01/22 10:19:26;;;;;;;13.33;5.17;;;7.90;97.60;;;;;;4888682;29;20032;-78
2021/01/22 10:21:51;;;;;;;11.80;5.87;;;8.30;97.70;;;;;;4919818;29;20043;-74
2021/01/22 10:24:17;;;;;;;10.73;4.60;;;8.60;97.00;;;;;;4919859;29;20480;-75
2021/01/22 10:26:45;;;;;;;8.88;4.03;;;9.20;96.70;;;;;;4925197;29;20042;-74
2021/01/22 10:29:11;;;;;;;10.85;4.97;;;9.60;96.20;;;;;;4956002;29;20023;-74
2021/01/22 10:31:37;;;;;;;11.52;4.32;;;9.80;94.40;;;;;;4931717;29;20020;-74
2021/01/22 10:34:02;;;;;;;7.00;3.47;;;10.00;92.80;;;;;;4936361;29;20023;-74
2021/01/22 10:36:28;;;;;;;9.10;3.90;;;10.30;93.60;;;;;;4904202;29;20038;-74
2021/01/22 10:38:54;;;;;;;10.73;4.00;;;10.60;92.50;;;;;;4919818;29;20032;-75
2021/01/22 10:41:20;;;;;;;7.60;2.90;;;10.90;91.20;;;;;;4919767;29;20087;-75
2021/01/22 10:43:45;;;;;;;9.05;3.20;;;11.10;91.30;;;;;;4936437;29;20503;-75
2021/01/22 10:46:11;;;;;;;10.95;3.58;;;11.40;90.20;;;;;;4951358;29;20039;-74
2021/01/22 10:48:37;;;;;;;7.45;3.33;;;11.40;86.90;;;;;;4938267;29;20035;-79
2021/01/22 10:51:02;;;;;;;8.10;3.00;;;11.60;86.30;;;;;;4940982;29;20062;-79
2021/01/22 10:53:28;;;;;;;8.93;2.53;;;11.80;85.00;;;;;;4954873;29;20082;-79
2021/01/22 10:55:53;;;;;;;11.18;3.10;;;12.00;84.80;;;;;;4918491;29;20047;-79
2021/01/22 10:58:19;;;;;;;8.00;2.95;;;12.20;81.00;;;;;;4921774;29;20491;-79
2021/01/22 11:00:45;;;;;;;8.40;2.88;;;12.20;79.80;;;;;;4937999;29;20046;-80
2021/01/22 11:03:11;;;;;;;9.07;2.78;;;12.30;75.70;;;;;;4937655;29;20129;-81
2021/01/22 11:05:36;;;;;;;10.93;3.63;;;12.30;77.30;;;;;;4922441;29;20166;-79
2021/01/22 11:08:03;;;;;;;9.43;3.45;;;12.20;75.60;;;;;;4955536;29;20043;-81
2021/01/22 11:10:29;;;;;;;12.23;3.40;;;12.20;77.20;;;;;;4937559;29;20098;-79
2021/01/22 11:12:56;;;;;;;10.30;3.38;;;12.20;74.80;;;;;;4938093;29;20505;-79
2021/01/22 11:15:22;;;;;;;12.88;2.63;;;12.10;73.70;;;;;;4937895;29;20062;-80
2021/01/22 11:17:47;;;;;;;9.35;3.20;;;11.80;72.80;;;;;;4924149;29;20067;-81
2021/01/22 11:20:15;;;;;;;10.48;3.10;;;11.40;71.30;;;;;;4918964;29;20063;-79
2021/01/22 11:22:41;;;;;;;10.38;2.97;;;11.30;72.00;;;;;;4935987;29;20365;-80
2021/01/22 11:25:07;;;;;;;8.68;2.63;;;11.10;72.80;;;;;;4918512;29;20039;-79
2021/01/22 11:27:32;;;;;;;7.82;2.58;;;10.90;73.40;;;;;;4903290;29;20095;-80
2021/01/22 11:29:58;;;;;;;9.93;2.65;;;11.00;75.10;;;;;;4887401;29;20023;-80
2021/01/22 11:32:24;;;;;;;11.15;2.95;;;11.10;74.90;;;;;;4918431;29;20411;-80
2021/01/22 11:34:50;;;;;;;11.57;3.05;;;11.20;72.90;;;;;;4918888;29;20047;-81
2021/01/22 11:37:15;;;;;;;8.45;2.60;;;11.10;73.80;;;;;;4937278;28;20496;-80
2021/01/22 11:39:41;;;;;;;8.00;2.63;;;11.20;74.80;;;;;;4974207;28;20038;-80
2021/01/22 11:42:08;;;;;;;9.35;3.03;;;11.40;75.30;;;;;;4956507;28;20026;-83
2021/01/22 11:44:34;;;;;;;13.40;2.65;;;11.50;74.40;;;;;;4927794;28;20034;-80
2021/01/22 11:47:00;;;;;;;10.93;2.60;;;11.60;73.20;;;;;;4956171;28;20150;-80
2021/01/22 11:49:26;;;;;;;10.65;2.60;;;11.60;72.60;;;;;;4935718;29;20066;-80
2021/01/22 11:51:53;;;;;;;11.15;2.65;;;11.70;72.50;;;;;;4918781;29;20074;-80
2021/01/22 11:54:18;;;;;;;10.82;2.45;;;11.60;72.20;;;;;;4918717;29;20032;-77
2021/01/22 11:56:46;;;;;;;7.35;1.85;;;11.70;72.40;;;;;;4935374;29;20036;-81
2021/01/22 11:59:12;;;;;;;8.50;2.08;;;11.60;71.50;;;;;;4935755;29;20042;-81
2021/01/22 12:01:38;;;;;;;8.07;2.40;;;11.60;71.50;;;;;;4901486;29;20036;-80
2021/01/22 12:04:04;;;;;;;10.35;3.22;;;11.80;73.40;;;;;;4886773;29;20031;-85
2021/01/22 12:06:30;;;;;;;8.60;2.00;;;11.90;70.50;;;;;;4887060;29;20032;-79
2021/01/22 12:08:55;;;;;;;11.60;2.22;;;11.80;70.20;;;;;;4935535;29;20083;-81
2021/01/22 12:11:22;;;;;;;13.07;3.40;;;11.50;68.90;;;;;;4940503;29;20033;-80
2021/01/22 12:13:47;;;;;;;10.30;2.67;;;11.10;69.70;;;;;;4929620;29;20051;-82
2021/01/22 12:16:13;;;;;;;7.88;2.22;;;11.20;71.00;;;;;;4937250;29;20066;-79
2021/01/22 12:18:39;;;;;;;6.70;1.80;;;11.20;69.80;;;;;;4954693;29;20082;-81
2021/01/22 12:21:06;;;;;;;7.32;2.25;;;10.90;71.40;;;;;;4937553;29;20031;-82
2021/01/22 12:23:32;;;;;;;14.93;4.03;;;10.80;70.60;;;;;;4940434;29;20063;-81
2021/01/22 12:25:58;;;;;;;9.17;2.27;;;10.90;70.80;;;;;;4940830;29;20424;-81
2021/01/22 12:28:24;;;;;;;11.63;2.50;;;10.80;71.00;;;;;;4957871;29;20037;-82
2021/01/22 12:30:49;;;;;;;11.23;2.03;;;10.70;71.00;;;;;;4957753;29;20036;-80
2021/01/22 12:33:15;;;;;;;11.00;2.40;;;10.90;72.60;;;;;;4921301;29;20083;-80
2021/01/22 12:35:41;;;;;;;8.53;2.43;;;11.00;71.90;;;;;;4924071;29;20114;-81
2021/01/22 12:38:07;;;;;;;10.68;2.65;;;11.10;72.00;;;;;;4928874;29;20171;-80
2021/01/22 12:40:32;;;;;;;13.93;2.20;;;11.20;71.70;;;;;;4943615;29;20036;-81
2021/01/22 12:42:58;;;;;;;7.82;2.08;;;11.40;71.20;;;;;;4938582;29;20082;-80
2021/01/22 12:45:24;;;;;;;9.32;2.05;;;11.40;69.80;;;;;;4905555;29;20051;-81